createdAt,value
2023-05-22T00:02:00.180Z,32.60
2023-05-22T00:04:30.250Z,29.60
2023-05-22T00:06:56.792Z,29.40
2023-05-22T00:09:25.826Z,31.03
2023-05-22T00:11:53.285Z,33.33
2023-05-22T00:14:19.838Z,27.40
2023-05-22T00:16:48.471Z,26.33
2023-05-22T00:19:16.527Z,28.50
2023-05-22T00:21:43.933Z,28.50
2023-05-22T00:24:10.771Z,25.60
2023-05-22T00:26:37.444Z,27.30
2023-05-22T00:29:05.863Z,28.47
2023-05-22T00:31:32.653Z,27.03
2023-05-22T00:33:59.430Z,29.30
2023-05-22T00:36:26.046Z,29.93
2023-05-22T00:38:52.553Z,27.40
2023-05-22T00:41:19.358Z,27.07
2023-05-22T00:43:46.026Z,25.90
2023-05-22T00:46:12.679Z,25.93
2023-05-22T00:48:39.440Z,27.33
2023-05-22T00:51:07.277Z,25.20
2023-05-22T00:53:33.963Z,22.53
2023-05-22T00:56:01.029Z,31.13
2023-05-22T00:58:27.743Z,26.67
2023-05-22T01:00:55.475Z,29.60
2023-05-22T01:03:26.969Z,28.67
2023-05-22T01:05:54.876Z,28.60
2023-05-22T01:08:21.656Z,28.53
2023-05-22T01:10:54.432Z,27.87
2023-05-22T01:13:39.463Z,34.30
2023-05-22T01:16:13.052Z,24.80
2023-05-22T01:19:04.232Z,31.03
2023-05-22T01:21:36.846Z,25.80
2023-05-22T01:24:41.948Z,24.53
2023-05-22T01:27:11.462Z,25.30
2023-05-22T01:29:47.978Z,27.37
2023-05-22T01:32:20.376Z,31.10
2023-05-22T01:34:47.935Z,27.30
2023-05-22T01:37:15.245Z,23.90
2023-05-22T01:39:43.271Z,27.00
2023-05-22T01:42:18.134Z,29.63
2023-05-22T01:44:44.752Z,27.40
2023-05-22T01:47:11.229Z,27.30
2023-05-22T01:49:37.806Z,28.20
2023-05-22T01:52:23.346Z,28.10
2023-05-22T01:54:58.399Z,23.30
2023-05-22T01:57:32.723Z,25.30
2023-05-22T02:00:09.955Z,25.37
2023-05-22T02:02:39.215Z,23.50
2023-05-22T02:05:08.497Z,25.93
2023-05-22T02:07:37.901Z,24.17
2023-05-22T02:10:07.164Z,24.17
2023-05-22T02:12:34.267Z,23.90
2023-05-22T02:15:01.356Z,27.37
2023-05-22T02:17:27.962Z,26.80
2023-05-22T02:19:54.476Z,25.70
2023-05-22T02:22:20.970Z,23.80
2023-05-22T02:24:48.628Z,24.37
2023-05-22T02:27:15.456Z,24.93
2023-05-22T02:29:41.928Z,23.20
2023-05-22T02:32:08.502Z,25.57
2023-05-22T02:34:35.060Z,23.10
2023-05-22T02:37:04.333Z,23.40
2023-05-22T02:39:30.947Z,25.03
2023-05-22T02:41:57.483Z,27.60
2023-05-22T02:44:23.960Z,26.27
2023-05-22T02:46:50.618Z,23.77
2023-05-22T02:49:17.365Z,27.30
2023-05-22T02:51:47.508Z,28.00
2023-05-22T02:54:15.796Z,23.43
2023-05-22T02:56:43.262Z,33.57
2023-05-22T02:59:10.064Z,23.90
2023-05-22T03:01:38.808Z,24.33
2023-05-22T03:04:06.646Z,24.27
2023-05-22T03:06:35.193Z,26.50
2023-05-22T03:09:03.737Z,29.97
2023-05-22T03:11:33.316Z,23.60
2023-05-22T03:13:59.894Z,27.97
2023-05-22T03:16:27.012Z,24.60
2023-05-22T03:19:16.641Z,25.40
2023-05-22T03:21:45.989Z,26.07
2023-05-22T03:24:15.437Z,24.60
2023-05-22T03:26:42.010Z,25.80
2023-05-22T03:29:08.624Z,25.13
2023-05-22T03:31:36.221Z,24.77
2023-05-22T03:34:03.093Z,23.17
2023-05-22T03:36:32.355Z,23.10
2023-05-22T03:38:59.058Z,24.30
2023-05-22T03:41:25.754Z,25.60
2023-05-22T03:43:52.317Z,22.30
2023-05-22T03:46:18.995Z,26.23
2023-05-22T03:48:45.594Z,30.50
2023-05-22T03:51:12.130Z,25.70
2023-05-22T03:53:38.600Z,22.40
2023-05-22T03:56:05.264Z,26.67
2023-05-22T03:58:31.817Z,24.73
2023-05-22T04:00:58.689Z,22.80
2023-05-22T04:03:25.395Z,23.50
2023-05-22T04:05:52.048Z,24.40
2023-05-22T04:08:18.795Z,23.03
2023-05-22T04:10:46.715Z,22.70
2023-05-22T04:13:14.165Z,24.87
2023-05-22T04:15:46.909Z,26.20
2023-05-22T04:18:14.115Z,23.10
2023-05-22T04:20:41.159Z,23.20
2023-05-22T04:23:07.960Z,22.60
2023-05-22T04:25:34.614Z,25.70
2023-05-22T04:28:04.023Z,25.87
2023-05-22T04:30:34.446Z,24.10
2023-05-22T04:33:01.749Z,28.07
2023-05-22T04:35:29.651Z,24.80
2023-05-22T04:38:02.655Z,25.00
2023-05-22T04:40:30.421Z,25.80
2023-05-22T04:42:59.985Z,27.03
2023-05-22T04:45:31.806Z,29.97
2023-05-22T04:47:59.766Z,23.10
2023-05-22T04:50:26.292Z,29.97
2023-05-22T04:52:53.491Z,23.60
2023-05-22T04:55:20.417Z,25.23
2023-05-22T04:57:47.415Z,26.00
2023-05-22T05:00:17.009Z,24.33
2023-05-22T05:02:43.782Z,28.30
2023-05-22T05:05:10.807Z,24.43
2023-05-22T05:07:40.686Z,26.93
2023-05-22T05:10:07.734Z,26.23
2023-05-22T05:12:34.491Z,31.53
2023-05-22T05:15:01.826Z,28.20
2023-05-22T05:17:28.774Z,26.57
2023-05-22T05:19:55.511Z,33.37
2023-05-22T05:22:22.017Z,29.40
2023-05-22T05:24:48.689Z,26.97
2023-05-22T05:27:15.326Z,32.23
2023-05-22T05:29:42.483Z,29.93
2023-05-22T05:32:09.908Z,27.13
2023-05-22T05:34:36.476Z,29.53
2023-05-22T05:37:03.102Z,28.40
2023-05-22T05:39:29.755Z,28.93
2023-05-22T05:41:56.389Z,34.13
2023-05-22T05:44:23.008Z,28.80
2023-05-22T05:46:49.633Z,31.40
2023-05-22T05:49:16.209Z,27.13
2023-05-22T05:51:42.690Z,27.40
2023-05-22T05:54:09.228Z,32.00
2023-05-22T05:56:35.796Z,30.27
2023-05-22T05:59:02.477Z,29.43
2023-05-22T06:01:32.909Z,35.97
2023-05-22T06:04:03.234Z,32.97
2023-05-22T06:06:36.256Z,33.87
2023-05-22T06:09:06.166Z,30.70
2023-05-22T06:11:33.276Z,32.70
2023-05-22T06:14:02.792Z,32.40
2023-05-22T06:16:29.751Z,30.40
2023-05-22T06:18:58.834Z,34.00
2023-05-22T06:21:25.494Z,33.10
2023-05-22T06:23:52.095Z,38.47
2023-05-22T06:26:18.677Z,39.53
2023-05-22T06:28:45.598Z,37.93
2023-05-22T06:31:22.969Z,36.60
2023-05-22T06:33:49.970Z,40.07
2023-05-22T06:36:17.544Z,39.20
2023-05-22T06:38:46.063Z,39.27
2023-05-22T06:41:12.606Z,54.17
2023-05-22T06:43:39.107Z,53.00
2023-05-22T06:46:07.218Z,49.63
2023-05-22T06:48:35.130Z,48.90
2023-05-22T06:51:02.175Z,49.63
2023-05-22T06:53:28.862Z,46.07
2023-05-22T06:55:56.546Z,49.70
2023-05-22T06:58:23.070Z,49.60
2023-05-22T07:00:49.618Z,56.90
2023-05-22T07:03:16.563Z,54.27
2023-05-22T07:05:43.146Z,49.17
2023-05-22T07:08:10.358Z,53.37
2023-05-22T07:10:37.156Z,51.67
2023-05-22T07:13:03.910Z,63.10
2023-05-22T07:15:30.505Z,54.60
2023-05-22T07:17:57.105Z,63.90
2023-05-22T07:20:25.747Z,58.80
2023-05-22T07:22:52.442Z,62.33
2023-05-22T07:25:18.993Z,66.60
2023-05-22T07:27:45.604Z,70.47
2023-05-22T07:30:12.586Z,65.70
2023-05-22T07:32:39.307Z,67.47
2023-05-22T07:35:07.262Z,71.43
2023-05-22T07:37:34.066Z,67.23
2023-05-22T07:40:00.883Z,69.57
2023-05-22T07:42:28.110Z,66.27
2023-05-22T07:44:54.658Z,64.23
2023-05-22T07:47:21.183Z,62.80
2023-05-22T07:49:47.725Z,71.93
2023-05-22T07:52:14.265Z,71.13
2023-05-22T07:54:42.434Z,67.07
2023-05-22T07:57:12.534Z,70.60
2023-05-22T07:59:39.076Z,69.07
2023-05-22T08:02:05.820Z,71.73
2023-05-22T08:04:32.574Z,75.40
2023-05-22T08:06:59.270Z,73.13
2023-05-22T08:09:25.837Z,71.90
2023-05-22T08:11:52.379Z,69.80
2023-05-22T08:14:18.864Z,71.63
2023-05-22T08:16:45.499Z,76.00
2023-05-22T08:19:12.396Z,72.03
2023-05-22T08:21:39.771Z,69.37
2023-05-22T08:24:07.893Z,72.40
2023-05-22T08:26:34.423Z,73.80
2023-05-22T08:29:01.369Z,70.00
2023-05-22T08:31:30.966Z,73.20
2023-05-22T08:34:02.340Z,72.37
2023-05-22T08:36:31.673Z,73.70
2023-05-22T08:38:58.227Z,69.80
2023-05-22T08:41:24.786Z,70.70
2023-05-22T08:43:51.280Z,74.87
2023-05-22T08:46:20.022Z,73.73
2023-05-22T08:48:47.823Z,77.07
2023-05-22T08:51:18.641Z,70.37
2023-05-22T08:53:46.334Z,68.23
2023-05-22T08:56:13.092Z,66.27
2023-05-22T08:58:40.707Z,75.53
2023-05-22T09:01:08.821Z,74.27
2023-05-22T09:03:36.925Z,75.00
2023-05-22T09:06:04.190Z,71.20
2023-05-22T09:08:30.737Z,65.40
2023-05-22T09:10:57.471Z,57.77
2023-05-22T09:13:29.163Z,58.13
2023-05-22T09:16:00.830Z,54.43
2023-05-22T09:18:29.047Z,50.17
2023-05-22T09:20:59.406Z,53.20
2023-05-22T09:23:28.214Z,49.50
2023-05-22T09:25:59.255Z,49.90
2023-05-22T09:28:26.240Z,49.97
2023-05-22T09:30:54.520Z,52.27
2023-05-22T09:33:23.257Z,51.03
2023-05-22T09:35:54.177Z,50.73
2023-05-22T09:38:27.771Z,48.40
2023-05-22T09:40:55.384Z,49.53
2023-05-22T09:43:26.543Z,57.13
2023-05-22T09:46:00.954Z,56.13
2023-05-22T09:48:27.493Z,54.27
2023-05-22T09:50:56.061Z,48.10
2023-05-22T09:53:27.933Z,52.00
2023-05-22T09:55:56.724Z,54.70
2023-05-22T09:58:25.953Z,51.90
2023-05-22T10:00:55.730Z,55.37
2023-05-22T10:03:27.038Z,50.90
2023-05-22T10:05:55.690Z,49.57
2023-05-22T10:08:26.132Z,53.30
2023-05-22T10:10:53.205Z,56.03
2023-05-22T10:13:21.059Z,47.00
2023-05-22T10:15:49.003Z,51.30
2023-05-22T10:18:16.884Z,54.70
2023-05-22T10:20:44.339Z,58.10
2023-05-22T10:23:11.306Z,51.37
2023-05-22T10:25:38.473Z,54.30
2023-05-22T10:28:06.307Z,50.73
2023-05-22T10:30:47.750Z,49.03
2023-05-22T10:33:22.262Z,53.70
2023-05-22T10:36:08.646Z,48.87
2023-05-22T10:38:50.390Z,50.17
2023-05-22T10:41:17.518Z,50.00
2023-05-22T10:43:48.291Z,50.00
2023-05-22T10:46:15.131Z,48.93
2023-05-22T10:48:45.697Z,49.17
2023-05-22T10:51:19.388Z,50.17
2023-05-22T10:53:53.409Z,46.37
2023-05-22T10:56:20.698Z,52.73
2023-05-22T10:59:05.163Z,49.80
2023-05-22T11:01:37.657Z,45.83
2023-05-22T11:04:04.503Z,56.17
2023-05-22T11:06:41.942Z,51.93
2023-05-22T11:09:30.192Z,54.33
2023-05-22T11:12:22.438Z,52.40
2023-05-22T11:14:58.139Z,45.93
2023-05-22T11:17:29.066Z,48.80
2023-05-22T11:20:01.994Z,48.43
2023-05-22T11:22:41.940Z,52.50
2023-05-22T11:25:16.682Z,44.77
2023-05-22T11:27:43.880Z,48.10
2023-05-22T11:30:11.766Z,47.57
2023-05-22T11:32:39.890Z,49.07
2023-05-22T11:35:08.485Z,47.43
2023-05-22T11:37:39.703Z,45.93
2023-05-22T11:40:07.256Z,51.17
2023-05-22T11:42:33.905Z,52.27
2023-05-22T11:45:00.673Z,48.60
2023-05-22T11:47:29.110Z,52.40
2023-05-22T11:50:03.003Z,48.67
2023-05-22T11:52:33.570Z,49.07
2023-05-22T11:55:00.395Z,46.70
2023-05-22T11:57:27.167Z,57.47
2023-05-22T11:59:54.279Z,49.67
2023-05-22T12:02:20.956Z,49.30
2023-05-22T12:04:47.595Z,51.47
2023-05-22T12:07:15.342Z,49.67
2023-05-22T12:09:42.988Z,49.00
2023-05-22T12:12:11.538Z,49.63
2023-05-22T12:14:38.270Z,47.37
2023-05-22T12:17:05.045Z,49.53
2023-05-22T12:19:32.549Z,53.60
2023-05-22T12:21:59.445Z,50.03
2023-05-22T12:24:26.147Z,53.73
2023-05-22T12:26:53.972Z,44.70
2023-05-22T12:29:23.735Z,50.70
2023-05-22T12:31:50.799Z,55.20
2023-05-22T12:34:18.762Z,50.23
2023-05-22T12:36:46.907Z,53.80
2023-05-22T12:39:17.469Z,50.50
2023-05-22T12:41:45.157Z,50.87
2023-05-22T12:44:12.132Z,49.60
2023-05-22T12:46:38.821Z,48.67
2023-05-22T12:49:05.614Z,54.17
2023-05-22T12:51:32.818Z,53.60
2023-05-22T12:54:00.155Z,53.00
2023-05-22T12:56:27.324Z,56.93
2023-05-22T12:58:53.869Z,52.60
2023-05-22T13:01:21.733Z,50.43
2023-05-22T13:03:48.336Z,49.53
2023-05-22T13:06:15.017Z,51.77
2023-05-22T13:08:41.517Z,52.73
2023-05-22T13:11:08.023Z,51.00
2023-05-22T13:13:34.609Z,52.50
2023-05-22T13:16:01.134Z,51.87
2023-05-22T13:18:27.695Z,59.03
2023-05-22T13:20:56.429Z,55.07
2023-05-22T13:23:23.169Z,51.50
2023-05-22T13:25:49.812Z,52.17
2023-05-22T13:28:16.333Z,56.23
2023-05-22T13:30:42.833Z,55.70
2023-05-22T13:33:09.373Z,57.70
2023-05-22T13:35:36.001Z,55.63
2023-05-22T13:38:02.654Z,59.10
2023-05-22T13:40:29.119Z,53.97
2023-05-22T13:42:55.753Z,52.80
2023-05-22T13:45:22.348Z,59.40
2023-05-22T13:47:49.732Z,52.97
2023-05-22T13:50:16.356Z,57.37
2023-05-22T13:52:42.828Z,56.03
2023-05-22T13:55:09.659Z,50.97
2023-05-22T13:57:37.030Z,58.60
2023-05-22T14:00:04.213Z,54.63
2023-05-22T14:02:30.817Z,55.33
2023-05-22T14:04:57.423Z,52.67
2023-05-22T14:07:23.938Z,53.20
2023-05-22T14:09:50.504Z,58.13
2023-05-22T14:12:16.985Z,60.13
2023-05-22T14:14:43.492Z,52.87
2023-05-22T14:17:10.075Z,53.73
2023-05-22T14:19:38.611Z,54.10
2023-05-22T14:22:05.359Z,58.00
2023-05-22T14:24:31.905Z,54.87
2023-05-22T14:26:58.674Z,63.40
2023-05-22T14:29:25.931Z,56.23
2023-05-22T14:32:01.151Z,52.23
2023-05-22T14:34:27.720Z,53.33
2023-05-22T14:36:56.558Z,57.80
2023-05-22T14:39:24.668Z,64.67
2023-05-22T14:41:52.801Z,54.67
2023-05-22T14:44:19.649Z,63.73
2023-05-22T14:46:46.428Z,57.40
2023-05-22T14:49:13.059Z,61.53
2023-05-22T14:51:39.661Z,53.60
2023-05-22T14:54:06.936Z,58.60
2023-05-22T14:56:33.709Z,54.97
2023-05-22T14:59:00.485Z,53.77
2023-05-22T15:01:27.131Z,56.30
2023-05-22T15:03:53.900Z,61.07
2023-05-22T15:06:20.420Z,59.47
2023-05-22T15:08:46.919Z,56.00
2023-05-22T15:11:13.534Z,60.07
2023-05-22T15:13:40.117Z,64.73
2023-05-22T15:16:08.734Z,60.70
2023-05-22T15:18:35.332Z,65.33
2023-05-22T15:21:01.933Z,57.30
2023-05-22T15:23:28.403Z,59.23
2023-05-22T15:25:55.079Z,62.67
2023-05-22T15:28:21.972Z,61.93
2023-05-22T15:30:48.725Z,62.90
2023-05-22T15:33:15.915Z,60.87
2023-05-22T15:35:44.203Z,63.07
2023-05-22T15:38:13.197Z,65.60
2023-05-22T15:40:40.912Z,74.07
2023-05-22T15:43:07.980Z,66.47
2023-05-22T15:45:37.121Z,61.87
2023-05-22T15:48:05.121Z,72.73
2023-05-22T15:50:32.472Z,76.83
2023-05-22T15:53:00.241Z,73.93
2023-05-22T15:55:26.902Z,71.10
2023-05-22T15:57:53.517Z,76.87
2023-05-22T16:00:21.440Z,76.57
2023-05-22T16:02:49.345Z,81.33
2023-05-22T16:05:16.121Z,73.53
2023-05-22T16:07:43.032Z,72.33
2023-05-22T16:10:10.681Z,66.40
2023-05-22T16:12:39.606Z,71.83
2023-05-22T16:15:07.282Z,76.93
2023-05-22T16:17:33.941Z,69.53
2023-05-22T16:20:00.600Z,71.43
2023-05-22T16:22:36.645Z,65.83
2023-05-22T16:25:07.720Z,68.23
2023-05-22T16:27:34.297Z,60.57
2023-05-22T16:30:02.616Z,60.60
2023-05-22T16:32:29.758Z,63.13
2023-05-22T16:34:56.274Z,54.80
2023-05-22T16:37:23.752Z,57.90
2023-05-22T16:39:50.351Z,57.57
2023-05-22T16:42:17.539Z,54.90
2023-05-22T16:44:44.240Z,57.40
2023-05-22T16:47:11.538Z,48.73
2023-05-22T16:49:40.349Z,52.10
2023-05-22T16:52:06.923Z,50.93
2023-05-22T16:54:33.569Z,53.93
2023-05-22T16:57:00.231Z,46.40
2023-05-22T16:59:26.823Z,40.47
2023-05-22T17:01:53.403Z,41.67
2023-05-22T17:04:20.703Z,48.30
2023-05-22T17:06:48.994Z,44.03
2023-05-22T17:09:15.580Z,43.10
2023-05-22T17:11:42.122Z,42.23
2023-05-22T17:14:08.629Z,44.73
2023-05-22T17:16:35.332Z,47.83
2023-05-22T17:19:02.036Z,29.90
2023-05-22T17:21:28.824Z,26.13
2023-05-22T17:23:55.331Z,25.73
2023-05-22T17:26:21.968Z,25.37
2023-05-22T17:28:48.620Z,26.93
2023-05-22T17:31:15.213Z,26.37
2023-05-22T17:33:43.335Z,21.03
2023-05-22T17:36:09.901Z,23.80
2023-05-22T17:38:37.506Z,20.37
2023-05-22T17:41:04.214Z,23.87
2023-05-22T17:43:34.925Z,17.67
2023-05-22T17:46:02.089Z,22.70
2023-05-22T17:48:28.697Z,19.37
2023-05-22T17:50:55.638Z,27.87
2023-05-22T17:53:22.150Z,28.27
2023-05-22T17:55:50.879Z,21.60
2023-05-22T17:58:17.625Z,18.43
2023-05-22T18:00:45.686Z,19.63
2023-05-22T18:03:13.082Z,23.03
2023-05-22T18:05:39.796Z,17.23
2023-05-22T18:08:06.379Z,18.90
2023-05-22T18:10:32.901Z,18.97
2023-05-22T18:12:59.539Z,20.00
2023-05-22T18:15:26.144Z,21.20
2023-05-22T18:17:52.792Z,19.27
2023-05-22T18:20:20.168Z,21.23
2023-05-22T18:22:49.363Z,18.43
2023-05-22T18:25:16.098Z,22.30
2023-05-22T18:27:43.003Z,21.10
2023-05-22T18:30:10.187Z,22.50
2023-05-22T18:32:37.052Z,28.50
2023-05-22T18:35:04.682Z,28.73
2023-05-22T18:37:32.308Z,19.27
2023-05-22T18:39:59.112Z,20.77
2023-05-22T18:42:26.069Z,21.70
2023-05-22T18:44:52.802Z,20.07
2023-05-22T18:47:19.334Z,22.60
2023-05-22T18:49:46.303Z,25.40
2023-05-22T18:52:13.048Z,20.80
2023-05-22T18:54:39.657Z,27.07
2023-05-22T18:57:06.589Z,21.37
2023-05-22T18:59:33.133Z,20.67
2023-05-22T19:01:59.656Z,24.40
2023-05-22T19:04:26.428Z,30.17
2023-05-22T19:06:53.830Z,20.53
2023-05-22T19:09:20.769Z,20.63
2023-05-22T19:11:47.609Z,21.47
2023-05-22T19:14:15.337Z,30.77
2023-05-22T19:16:43.909Z,24.63
2023-05-22T19:19:14.770Z,24.73
2023-05-22T19:21:41.687Z,23.07
2023-05-22T19:24:08.481Z,22.47
2023-05-22T19:26:35.368Z,28.13
2023-05-22T19:29:02.188Z,25.70
2023-05-22T19:31:29.777Z,23.80
2023-05-22T19:33:56.886Z,24.10
2023-05-22T19:36:23.790Z,24.67
2023-05-22T19:38:53.207Z,22.33
2023-05-22T19:41:20.702Z,20.70
2023-05-22T19:43:47.570Z,24.87
2023-05-22T19:46:14.755Z,22.37
2023-05-22T19:48:41.676Z,29.83
2023-05-22T19:51:08.796Z,25.33
2023-05-22T19:53:36.636Z,25.13
2023-05-22T19:56:03.579Z,72.20
2023-05-22T19:58:30.656Z,26.57
2023-05-22T20:00:57.511Z,27.50
2023-05-22T20:03:24.599Z,23.37
2023-05-22T20:05:55.170Z,20.63
2023-05-22T20:08:22.611Z,20.60
2023-05-22T20:10:49.639Z,20.97
2023-05-22T20:13:16.447Z,21.63
2023-05-22T20:15:43.066Z,20.67
2023-05-22T20:18:12.589Z,21.37
2023-05-22T20:20:39.150Z,20.77
2023-05-22T20:23:05.813Z,18.10
2023-05-22T20:25:32.363Z,22.70
2023-05-22T20:27:58.912Z,17.73
2023-05-22T20:30:25.471Z,22.13
2023-05-22T20:32:52.075Z,22.73
2023-05-22T20:35:20.109Z,22.17
2023-05-22T20:37:47.294Z,19.70
2023-05-22T20:40:15.047Z,21.10
2023-05-22T20:42:46.137Z,15.67
2023-05-22T20:45:14.755Z,14.33
2023-05-22T20:47:42.815Z,17.50
2023-05-22T20:50:09.887Z,15.73
2023-05-22T20:52:39.946Z,18.20
2023-05-22T20:55:07.354Z,16.17
2023-05-22T20:57:34.622Z,15.13
2023-05-22T21:00:01.541Z,18.43
2023-05-22T21:02:28.235Z,15.77
2023-05-22T21:04:54.795Z,18.03
2023-05-22T21:07:21.341Z,14.83
2023-05-22T21:09:47.860Z,16.23
2023-05-22T21:12:14.438Z,15.57
2023-05-22T21:14:41.486Z,15.17
2023-05-22T21:17:08.100Z,15.20
2023-05-22T21:19:34.715Z,16.47
2023-05-22T21:22:01.403Z,14.93
2023-05-22T21:24:27.964Z,17.20
2023-05-22T21:26:54.462Z,17.50
2023-05-22T21:29:20.976Z,13.83
2023-05-22T21:31:47.571Z,13.50
2023-05-22T21:34:14.324Z,14.70
2023-05-22T21:36:41.229Z,18.47
2023-05-22T21:39:07.739Z,18.17
2023-05-22T21:41:34.680Z,14.87
2023-05-22T21:44:01.240Z,16.77
2023-05-22T21:46:27.847Z,15.23
2023-05-22T21:48:54.523Z,15.40
2023-05-22T21:51:21.138Z,13.20
2023-05-22T21:53:47.860Z,14.40
2023-05-22T21:56:14.434Z,14.13
2023-05-22T21:58:40.925Z,15.10
2023-05-22T22:01:07.467Z,14.80
2023-05-22T22:03:34.093Z,15.53
2023-05-22T22:06:00.657Z,15.37
2023-05-22T22:08:28.438Z,16.93
2023-05-22T22:10:55.460Z,15.23
2023-05-22T22:13:22.018Z,16.67
2023-05-22T22:15:48.494Z,16.20
2023-05-22T22:18:15.811Z,17.53
2023-05-22T22:20:44.894Z,14.67
2023-05-22T22:23:12.178Z,16.87
2023-05-22T22:25:39.166Z,16.23
2023-05-22T22:28:07.220Z,13.60
2023-05-22T22:30:34.037Z,14.90
2023-05-22T22:33:00.936Z,17.20
2023-05-22T22:35:31.188Z,14.90
2023-05-22T22:37:58.241Z,15.43
2023-05-22T22:40:26.660Z,17.37
2023-05-22T22:42:53.649Z,16.37
2023-05-22T22:45:20.344Z,15.87
2023-05-22T22:47:47.356Z,18.53
2023-05-22T22:50:13.951Z,19.83
2023-05-22T22:52:45.398Z,17.70
2023-05-22T22:55:12.403Z,15.00
2023-05-22T22:57:39.122Z,18.13
2023-05-22T23:00:09.278Z,18.80
2023-05-22T23:02:35.794Z,21.00
2023-05-22T23:05:02.426Z,20.57
2023-05-22T23:07:28.989Z,16.17
2023-05-22T23:09:55.477Z,20.80
2023-05-22T23:12:21.973Z,16.90
2023-05-22T23:14:50.500Z,15.30
2023-05-22T23:17:17.026Z,17.87
2023-05-22T23:19:43.497Z,15.20
2023-05-22T23:22:10.039Z,20.53
2023-05-22T23:24:36.511Z,17.13
2023-05-22T23:27:03.360Z,17.30
2023-05-22T23:29:29.827Z,18.60
2023-05-22T23:31:56.548Z,19.00
2023-05-22T23:34:23.205Z,16.20
2023-05-22T23:36:49.710Z,16.07
2023-05-22T23:39:16.290Z,17.63
2023-05-22T23:41:42.772Z,21.20
2023-05-22T23:44:09.319Z,15.23
2023-05-22T23:46:37.206Z,19.90
2023-05-22T23:49:03.770Z,17.60
2023-05-22T23:51:31.234Z,17.53
2023-05-22T23:53:57.750Z,15.23
2023-05-22T23:56:24.293Z,18.70
2023-05-22T23:58:50.792Z,18.07
